sensor_id;sensor_type;location;lat;lon;timestamp;pressure;altitude;pressure_sealevel;temperature;humidity
59608;BME280;45426;44.726;10.390;2022-08-30T00:01:14;100642.72;;;25.56;100.00
59608;BME280;45426;44.726;10.390;2022-08-30T00:03:43;100638.53;;;25.68;100.00
59608;BME280;45426;44.726;10.390;2022-08-30T00:06:11;100639.75;;;25.07;100.00
59608;BME280;45426;44.726;10.390;2022-08-30T00:08:37;100635.19;;;24.97;100.00
59608;BME280;45426;44.726;10.390;2022-08-30T00:11:05;100636.59;;;24.85;100.00
59608;BME280;45426;44.726;10.390;2022-08-30T00:13:30;100627.84;;;24.87;100.00
59608;BME280;45426;44.726;10.390;2022-08-30T00:15:56;100633.47;;;24.59;100.00
59608;BME280;45426;44.726;10.390;2022-08-30T00:18:22;100628.50;;;25.14;100.00
59608;BME280;45426;44.726;10.390;2022-08-30T00:20:49;100626.34;;;25.02;100.00
59608;BME280;45426;44.726;10.390;2022-08-30T00:23:16;100626.41;;;24.78;100.00
59608;BME280;45426;44.726;10.390;2022-08-30T00:25:42;100629.72;;;24.46;100.00
59608;BME280;45426;44.726;10.390;2022-08-30T00:28:10;100627.06;;;24.15;100.00
59608;BME280;45426;44.726;10.390;2022-08-30T00:30:37;100622.22;;;24.67;100.00
59608;BME280;45426;44.726;10.390;2022-08-30T00:33:03;100631.13;;;25.42;100.00
59608;BME280;45426;44.726;10.390;2022-08-30T00:35:29;100625.00;;;25.30;100.00
59608;BME280;45426;44.726;10.390;2022-08-30T00:37:54;100623.47;;;25.66;100.00
59608;BME280;45426;44.726;10.390;2022-08-30T00:40:20;100618.56;;;25.53;100.00
59608;BME280;45426;44.726;10.390;2022-08-30T00:42:46;100616.94;;;25.16;100.00
59608;BME280;45426;44.726;10.390;2022-08-30T00:45:19;100620.34;;;25.04;100.00
59608;BME280;45426;44.726;10.390;2022-08-30T00:47:45;100615.28;;;24.98;100.00
59608;BME280;45426;44.726;10.390;2022-08-30T00:50:13;100619.09;;;25.48;100.00
59608;BME280;45426;44.726;10.390;2022-08-30T00:52:41;100620.06;;;25.58;100.00
59608;BME280;45426;44.726;10.390;2022-08-30T00:55:10;100619.16;;;25.25;100.00
59608;BME280;45426;44.726;10.390;2022-08-30T00:57:39;100620.94;;;25.15;100.00
59608;BME280;45426;44.726;10.390;2022-08-30T01:00:05;100626.72;;;24.60;100.00
59608;BME280;45426;44.726;10.390;2022-08-30T01:02:31;100628.75;;;25.00;100.00
59608;BME280;45426;44.726;10.390;2022-08-30T01:05:00;100625.28;;;24.96;100.00
59608;BME280;45426;44.726;10.390;2022-08-30T01:07:26;100618.25;;;24.68;100.00
59608;BME280;45426;44.726;10.390;2022-08-30T01:09:51;100618.00;;;24.82;100.00
59608;BME280;45426;44.726;10.390;2022-08-30T01:12:17;100617.19;;;25.25;100.00
59608;BME280;45426;44.726;10.390;2022-08-30T01:14:43;100606.78;;;25.29;100.00
59608;BME280;45426;44.726;10.390;2022-08-30T01:17:08;100615.50;;;25.08;100.00
59608;BME280;45426;44.726;10.390;2022-08-30T01:19:39;100613.78;;;24.74;100.00
59608;BME280;45426;44.726;10.390;2022-08-30T01:24:42;100617.50;;;24.87;100.00
59608;BME280;45426;44.726;10.390;2022-08-30T01:27:08;100614.63;;;25.34;100.00
59608;BME280;45426;44.726;10.390;2022-08-30T01:29:33;100625.06;;;25.07;100.00
59608;BME280;45426;44.726;10.390;2022-08-30T01:31:59;100626.34;;;25.02;100.00
59608;BME280;45426;44.726;10.390;2022-08-30T01:34:24;100621.38;;;24.93;100.00
59608;BME280;45426;44.726;10.390;2022-08-30T01:36:50;100626.44;;;25.38;100.00
59608;BME280;45426;44.726;10.390;2022-08-30T01:39:16;100627.22;;;25.39;100.00
59608;BME280;45426;44.726;10.390;2022-08-30T01:41:42;100623.81;;;24.68;100.00
59608;BME280;45426;44.726;10.390;2022-08-30T01:44:09;100621.66;;;24.05;100.00
59608;BME280;45426;44.726;10.390;2022-08-30T01:46:41;100623.03;;;23.62;100.00
59608;BME280;45426;44.726;10.390;2022-08-30T01:49:10;100624.16;;;23.37;100.00
59608;BME280;45426;44.726;10.390;2022-08-30T01:51:37;100619.91;;;23.60;100.00
59608;BME280;45426;44.726;10.390;2022-08-30T01:54:02;100614.88;;;23.82;100.00
59608;BME280;45426;44.726;10.390;2022-08-30T01:56:28;100625.97;;;23.82;100.00
59608;BME280;45426;44.726;10.390;2022-08-30T01:58:55;100611.44;;;24.49;100.00
59608;BME280;45426;44.726;10.390;2022-08-30T02:01:24;100600.75;;;24.71;100.00
59608;BME280;45426;44.726;10.390;2022-08-30T02:03:51;100607.31;;;24.10;100.00
59608;BME280;45426;44.726;10.390;2022-08-30T02:06:18;100602.56;;;23.52;100.00
59608;BME280;45426;44.726;10.390;2022-08-30T02:08:45;100597.16;;;23.99;100.00
59608;BME280;45426;44.726;10.390;2022-08-30T02:11:11;100609.47;;;23.98;100.00
59608;BME280;45426;44.726;10.390;2022-08-30T02:13:39;100608.19;;;24.03;100.00
59608;BME280;45426;44.726;10.390;2022-08-30T02:16:07;100615.81;;;23.99;100.00
59608;BME280;45426;44.726;10.390;2022-08-30T02:18:34;100609.25;;;24.13;100.00
59608;BME280;45426;44.726;10.390;2022-08-30T02:21:00;100609.06;;;24.23;100.00
59608;BME280;45426;44.726;10.390;2022-08-30T02:23:26;100604.63;;;24.53;100.00
59608;BME280;45426;44.726;10.390;2022-08-30T02:25:52;100607.81;;;24.75;100.00
59608;BME280;45426;44.726;10.390;2022-08-30T02:28:18;100613.88;;;24.90;100.00
59608;BME280;45426;44.726;10.390;2022-08-30T02:30:45;100620.50;;;24.96;100.00
59608;BME280;45426;44.726;10.390;2022-08-30T02:33:11;100620.50;;;24.76;100.00
59608;BME280;45426;44.726;10.390;2022-08-30T02:35:36;100614.31;;;24.41;100.00
59608;BME280;45426;44.726;10.390;2022-08-30T02:38:02;100620.78;;;24.35;100.00
59608;BME280;45426;44.726;10.390;2022-08-30T02:40:28;100626.09;;;24.49;100.00
59608;BME280;45426;44.726;10.390;2022-08-30T02:42:54;100635.25;;;24.46;100.00
59608;BME280;45426;44.726;10.390;2022-08-30T02:45:20;100633.94;;;24.31;100.00
59608;BME280;45426;44.726;10.390;2022-08-30T02:47:45;100637.44;;;24.35;100.00
59608;BME280;45426;44.726;10.390;2022-08-30T02:50:12;100639.63;;;24.47;100.00
59608;BME280;45426;44.726;10.390;2022-08-30T02:52:37;100644.47;;;24.16;100.00
59608;BME280;45426;44.726;10.390;2022-08-30T02:55:04;100648.72;;;23.97;100.00
59608;BME280;45426;44.726;10.390;2022-08-30T02:57:30;100649.72;;;24.10;100.00
59608;BME280;45426;44.726;10.390;2022-08-30T02:59:55;100647.50;;;24.25;100.00
59608;BME280;45426;44.726;10.390;2022-08-30T03:02:20;100654.22;;;24.00;100.00
59608;BME280;45426;44.726;10.390;2022-08-30T03:04:47;100644.28;;;24.03;100.00
59608;BME280;45426;44.726;10.390;2022-08-30T03:07:13;100645.50;;;24.02;100.00
59608;BME280;45426;44.726;10.390;2022-08-30T03:09:40;100639.84;;;24.09;100.00
59608;BME280;45426;44.726;10.390;2022-08-30T03:12:06;100639.28;;;24.18;100.00
59608;BME280;45426;44.726;10.390;2022-08-30T03:14:32;100633.28;;;24.23;100.00
59608;BME280;45426;44.726;10.390;2022-08-30T03:16:59;100632.56;;;23.92;100.00
59608;BME280;45426;44.726;10.390;2022-08-30T03:19:24;100616.41;;;24.10;100.00
59608;BME280;45426;44.726;10.390;2022-08-30T03:21:50;100616.09;;;24.32;100.00
59608;BME280;45426;44.726;10.390;2022-08-30T03:24:16;100612.03;;;24.36;100.00
59608;BME280;45426;44.726;10.390;2022-08-30T03:26:42;100622.09;;;24.27;100.00
59608;BME280;45426;44.726;10.390;2022-08-30T03:29:07;100635.47;;;24.08;100.00
59608;BME280;45426;44.726;10.390;2022-08-30T03:31:33;100641.44;;;23.49;100.00
59608;BME280;45426;44.726;10.390;2022-08-30T03:33:58;100643.69;;;24.15;100.00
59608;BME280;45426;44.726;10.390;2022-08-30T03:36:23;100652.06;;;24.39;100.00
59608;BME280;45426;44.726;10.390;2022-08-30T03:38:49;100655.66;;;24.36;100.00
59608;BME280;45426;44.726;10.390;2022-08-30T03:41:14;100655.97;;;23.91;100.00
59608;BME280;45426;44.726;10.390;2022-08-30T03:43:42;100659.16;;;24.40;100.00
59608;BME280;45426;44.726;10.390;2022-08-30T03:46:07;100655.66;;;24.36;100.00
59608;BME280;45426;44.726;10.390;2022-08-30T03:48:32;100653.69;;;23.82;100.00
59608;BME280;45426;44.726;10.390;2022-08-30T03:50:58;100659.44;;;23.64;100.00
59608;BME280;45426;44.726;10.390;2022-08-30T03:53:23;100661.41;;;23.67;100.00
59608;BME280;45426;44.726;10.390;2022-08-30T03:55:49;100658.78;;;23.22;100.00
59608;BME280;45426;44.726;10.390;2022-08-30T03:58:14;100656.41;;;22.82;100.00
59608;BME280;45426;44.726;10.390;2022-08-30T04:00:40;100665.22;;;23.12;100.00
59608;BME280;45426;44.726;10.390;2022-08-30T04:03:05;100664.28;;;22.87;100.00
59608;BME280;45426;44.726;10.390;2022-08-30T04:05:31;100662.78;;;23.52;100.00
59608;BME280;45426;44.726;10.390;2022-08-30T04:07:56;100669.19;;;23.45;100.00
59608;BME280;45426;44.726;10.390;2022-08-30T04:10:22;100675.25;;;23.36;100.00
59608;BME280;45426;44.726;10.390;2022-08-30T04:12:50;100668.84;;;23.43;100.00
59608;BME280;45426;44.726;10.390;2022-08-30T04:15:17;100675.16;;;23.09;100.00
59608;BME280;45426;44.726;10.390;2022-08-30T04:17:43;100675.19;;;23.05;100.00
59608;BME280;45426;44.726;10.390;2022-08-30T04:20:09;100666.09;;;23.05;100.00
59608;BME280;45426;44.726;10.390;2022-08-30T04:22:35;100675.59;;;23.42;100.00
59608;BME280;45426;44.726;10.390;2022-08-30T04:25:02;100677.09;;;23.16;100.00
59608;BME280;45426;44.726;10.390;2022-08-30T04:27:28;100683.47;;;23.43;100.00
59608;BME280;45426;44.726;10.390;2022-08-30T04:29:53;100695.63;;;23.57;100.00
59608;BME280;45426;44.726;10.390;2022-08-30T04:32:20;100697.00;;;23.38;100.00
59608;BME280;45426;44.726;10.390;2022-08-30T04:34:45;100709.59;;;23.80;100.00
59608;BME280;45426;44.726;10.390;2022-08-30T04:37:11;100717.50;;;24.13;100.00
59608;BME280;45426;44.726;10.390;2022-08-30T04:39:37;100721.19;;;23.72;100.00
59608;BME280;45426;44.726;10.390;2022-08-30T04:42:02;100723.34;;;23.91;100.00
59608;BME280;45426;44.726;10.390;2022-08-30T04:44:28;100712.38;;;23.77;100.00
59608;BME280;45426;44.726;10.390;2022-08-30T04:46:53;100722.66;;;24.11;100.00
59608;BME280;45426;44.726;10.390;2022-08-30T04:49:19;100719.31;;;24.23;100.00
59608;BME280;45426;44.726;10.390;2022-08-30T04:51:45;100737.72;;;24.13;100.00
59608;BME280;45426;44.726;10.390;2022-08-30T04:54:10;100747.28;;;24.09;100.00
59608;BME280;45426;44.726;10.390;2022-08-30T04:56:36;100750.06;;;23.74;100.00
59608;BME280;45426;44.726;10.390;2022-08-30T04:59:02;100753.41;;;23.96;100.00
59608;BME280;45426;44.726;10.390;2022-08-30T05:01:30;100751.53;;;23.86;100.00
59608;BME280;45426;44.726;10.390;2022-08-30T05:03:57;100756.28;;;23.51;100.00
59608;BME280;45426;44.726;10.390;2022-08-30T05:06:25;100761.59;;;24.07;100.00
59608;BME280;45426;44.726;10.390;2022-08-30T05:08:51;100777.00;;;23.39;100.00
59608;BME280;45426;44.726;10.390;2022-08-30T05:11:18;100777.03;;;22.91;100.00
59608;BME280;45426;44.726;10.390;2022-08-30T05:13:44;100786.06;;;22.39;100.00
59608;BME280;45426;44.726;10.390;2022-08-30T05:16:10;100780.13;;;22.44;100.00
59608;BME280;45426;44.726;10.390;2022-08-30T05:18:37;100776.19;;;23.42;100.00
59608;BME280;45426;44.726;10.390;2022-08-30T05:21:03;100775.03;;;23.74;100.00
59608;BME280;45426;44.726;10.390;2022-08-30T05:23:29;100771.50;;;23.32;100.00
59608;BME280;45426;44.726;10.390;2022-08-30T05:25:54;100772.63;;;23.42;100.00
59608;BME280;45426;44.726;10.390;2022-08-30T05:28:20;100765.88;;;23.43;100.00
59608;BME280;45426;44.726;10.390;2022-08-30T05:30:45;100762.53;;;23.59;100.00
59608;BME280;45426;44.726;10.390;2022-08-30T05:33:11;100767.19;;;22.86;100.00
59608;BME280;45426;44.726;10.390;2022-08-30T05:35:37;100766.09;;;22.73;100.00
59608;BME280;45426;44.726;10.390;2022-08-30T05:38:02;100758.19;;;23.58;100.00
59608;BME280;45426;44.726;10.390;2022-08-30T05:40:28;100765.28;;;23.21;100.00
59608;BME280;45426;44.726;10.390;2022-08-30T05:42:53;100762.53;;;23.21;100.00
59608;BME280;45426;44.726;10.390;2022-08-30T05:45:19;100767.56;;;23.33;100.00
59608;BME280;45426;44.726;10.390;2022-08-30T05:47:44;100756.81;;;24.35;100.00
59608;BME280;45426;44.726;10.390;2022-08-30T05:50:11;100757.09;;;23.48;100.00
59608;BME280;45426;44.726;10.390;2022-08-30T05:52:39;100754.22;;;23.59;100.00
59608;BME280;45426;44.726;10.390;2022-08-30T05:55:07;100751.31;;;23.35;100.00
59608;BME280;45426;44.726;10.390;2022-08-30T05:57:35;100744.56;;;23.71;100.00
59608;BME280;45426;44.726;10.390;2022-08-30T06:00:04;100752.25;;;24.48;100.00
59608;BME280;45426;44.726;10.390;2022-08-30T06:02:30;100747.25;;;24.90;100.00
59608;BME280;45426;44.726;10.390;2022-08-30T06:04:55;100743.78;;;25.06;100.00
59608;BME280;45426;44.726;10.390;2022-08-30T06:07:21;100749.91;;;24.74;100.00
59608;BME280;45426;44.726;10.390;2022-08-30T06:09:46;100739.56;;;24.74;100.00
59608;BME280;45426;44.726;10.390;2022-08-30T06:12:12;100743.94;;;25.43;100.00
59608;BME280;45426;44.726;10.390;2022-08-30T06:14:37;100736.25;;;25.70;100.00
59608;BME280;45426;44.726;10.390;2022-08-30T06:17:04;100747.59;;;25.16;100.00
59608;BME280;45426;44.726;10.390;2022-08-30T06:19:29;100743.16;;;25.42;100.00
59608;BME280;45426;44.726;10.390;2022-08-30T06:21:55;100747.44;;;25.67;100.00
59608;BME280;45426;44.726;10.390;2022-08-30T06:24:20;100745.00;;;25.49;100.00
59608;BME280;45426;44.726;10.390;2022-08-30T06:26:46;100748.28;;;25.84;100.00
59608;BME280;45426;44.726;10.390;2022-08-30T06:29:14;100742.81;;;26.17;100.00
59608;BME280;45426;44.726;10.390;2022-08-30T06:31:40;100735.41;;;25.53;100.00
59608;BME280;45426;44.726;10.390;2022-08-30T06:34:06;100735.75;;;26.65;100.00
59608;BME280;45426;44.726;10.390;2022-08-30T06:36:31;100728.41;;;26.38;100.00
59608;BME280;45426;44.726;10.390;2022-08-30T06:38:57;100730.84;;;27.02;100.00
59608;BME280;45426;44.726;10.390;2022-08-30T06:41:25;100722.31;;;28.83;100.00
59608;BME280;45426;44.726;10.390;2022-08-30T06:43:51;100730.78;;;30.93;100.00
59608;BME280;45426;44.726;10.390;2022-08-30T06:46:25;100717.88;;;33.23;100.00
59608;BME280;45426;44.726;10.390;2022-08-30T06:48:52;100716.72;;;34.40;100.00
59608;BME280;45426;44.726;10.390;2022-08-30T06:51:22;100717.81;;;34.84;100.00
59608;BME280;45426;44.726;10.390;2022-08-30T06:53:49;100717.25;;;37.53;100.00
59608;BME280;45426;44.726;10.390;2022-08-30T06:56:16;100724.53;;;38.80;100.00
59608;BME280;45426;44.726;10.390;2022-08-30T06:58:42;100725.09;;;39.92;100.00
59608;BME280;45426;44.726;10.390;2022-08-30T07:01:15;100727.19;;;39.86;100.00
59608;BME280;45426;44.726;10.390;2022-08-30T07:03:42;100732.06;;;39.91;100.00
59608;BME280;45426;44.726;10.390;2022-08-30T07:06:08;100727.00;;;39.07;100.00
59608;BME280;45426;44.726;10.390;2022-08-30T07:08:34;100727.38;;;41.06;100.00
59608;BME280;45426;44.726;10.390;2022-08-30T07:11:00;100732.78;;;38.84;100.00
59608;BME280;45426;44.726;10.390;2022-08-30T07:13:26;100733.84;;;38.75;100.00
59608;BME280;45426;44.726;10.390;2022-08-30T07:15:52;100727.47;;;39.11;100.00
59608;BME280;45426;44.726;10.390;2022-08-30T07:18:18;100733.19;;;39.41;100.00
59608;BME280;45426;44.726;10.390;2022-08-30T07:21:13;100736.53;;;41.18;100.00
59608;BME280;45426;44.726;10.390;2022-08-30T07:23:41;100730.16;;;41.11;100.00
59608;BME280;45426;44.726;10.390;2022-08-30T07:26:09;100729.63;;;40.94;100.00
59608;BME280;45426;44.726;10.390;2022-08-30T07:28:39;100731.00;;;40.44;100.00
59608;BME280;45426;44.726;10.390;2022-08-30T07:31:05;100729.38;;;37.82;100.00
59608;BME280;45426;44.726;10.390;2022-08-30T07:33:31;100729.69;;;35.34;100.00
59608;BME280;45426;44.726;10.390;2022-08-30T07:35:56;100719.16;;;36.79;100.00
59608;BME280;45426;44.726;10.390;2022-08-30T07:38:23;100712.06;;;38.19;100.00
59608;BME280;45426;44.726;10.390;2022-08-30T07:40:49;100721.78;;;39.52;100.00
59608;BME280;45426;44.726;10.390;2022-08-30T07:43:14;100720.81;;;38.38;100.00
59608;BME280;45426;44.726;10.390;2022-08-30T07:45:40;100714.47;;;38.79;100.00
59608;BME280;45426;44.726;10.390;2022-08-30T07:48:05;100728.69;;;36.33;100.00
59608;BME280;45426;44.726;10.390;2022-08-30T07:50:32;100718.09;;;40.43;100.00
59608;BME280;45426;44.726;10.390;2022-08-30T07:52:58;100713.50;;;41.16;100.00
59608;BME280;45426;44.726;10.390;2022-08-30T07:55:23;100718.97;;;41.65;100.00
59608;BME280;45426;44.726;10.390;2022-08-30T07:57:48;100718.00;;;41.76;100.00
59608;BME280;45426;44.726;10.390;2022-08-30T08:00:14;100714.50;;;39.21;100.00
59608;BME280;45426;44.726;10.390;2022-08-30T08:02:40;100718.59;;;37.75;100.00
59608;BME280;45426;44.726;10.390;2022-08-30T08:05:07;100721.53;;;37.03;100.00
59608;BME280;45426;44.726;10.390;2022-08-30T08:07:34;100721.75;;;40.81;100.00
59608;BME280;45426;44.726;10.390;2022-08-30T08:09:59;100722.16;;;38.20;100.00
59608;BME280;45426;44.726;10.390;2022-08-30T08:12:25;100726.22;;;41.14;100.00
59608;BME280;45426;44.726;10.390;2022-08-30T08:14:51;100725.47;;;41.46;100.00
59608;BME280;45426;44.726;10.390;2022-08-30T08:17:17;100719.31;;;42.81;100.00
59608;BME280;45426;44.726;10.390;2022-08-30T08:19:44;100726.00;;;41.64;100.00
59608;BME280;45426;44.726;10.390;2022-08-30T08:22:10;100707.56;;;41.65;100.00
59608;BME280;45426;44.726;10.390;2022-08-30T08:24:38;100715.44;;;40.01;100.00
59608;BME280;45426;44.726;10.390;2022-08-30T08:27:03;100718.75;;;36.11;100.00
59608;BME280;45426;44.726;10.390;2022-08-30T08:29:33;100712.13;;;35.51;100.00
59608;BME280;45426;44.726;10.390;2022-08-30T08:31:58;100722.84;;;34.74;100.00
59608;BME280;45426;44.726;10.390;2022-08-30T08:34:25;100718.72;;;34.95;100.00
59608;BME280;45426;44.726;10.390;2022-08-30T08:36:53;100719.28;;;34.58;100.00
59608;BME280;45426;44.726;10.390;2022-08-30T08:39:18;100721.75;;;34.00;100.00
59608;BME280;45426;44.726;10.390;2022-08-30T08:42:14;100717.84;;;34.28;100.00
59608;BME280;45426;44.726;10.390;2022-08-30T08:47:25;100707.47;;;34.39;100.00
59608;BME280;45426;44.726;10.390;2022-08-30T08:49:57;100719.44;;;33.39;100.00
59608;BME280;45426;44.726;10.390;2022-08-30T08:52:54;100703.41;;;33.90;100.00
59608;BME280;45426;44.726;10.390;2022-08-30T08:55:44;100716.63;;;33.24;100.00
59608;BME280;45426;44.726;10.390;2022-08-30T08:58:23;100707.63;;;33.35;100.00
59608;BME280;45426;44.726;10.390;2022-08-30T09:00:49;100707.69;;;32.87;100.00
59608;BME280;45426;44.726;10.390;2022-08-30T09:03:17;100705.38;;;33.00;100.00
59608;BME280;45426;44.726;10.390;2022-08-30T09:05:48;100701.66;;;32.79;100.00
59608;BME280;45426;44.726;10.390;2022-08-30T09:08:18;100697.38;;;32.36;100.00
59608;BME280;45426;44.726;10.390;2022-08-30T09:10:53;100704.66;;;32.18;100.00
59608;BME280;45426;44.726;10.390;2022-08-30T09:13:22;100697.81;;;33.06;100.00
59608;BME280;45426;44.726;10.390;2022-08-30T09:15:49;100702.13;;;32.54;100.00
59608;BME280;45426;44.726;10.390;2022-08-30T09:18:14;100705.94;;;33.58;100.00
59608;BME280;45426;44.726;10.390;2022-08-30T09:20:43;100695.56;;;33.35;100.00
59608;BME280;45426;44.726;10.390;2022-08-30T09:26:03;100704.00;;;32.81;100.00
59608;BME280;45426;44.726;10.390;2022-08-30T09:28:49;100703.25;;;32.71;100.00
59608;BME280;45426;44.726;10.390;2022-08-30T09:31:51;100696.25;;;32.91;100.00
59608;BME280;45426;44.726;10.390;2022-08-30T09:34:21;100700.72;;;32.97;100.00
59608;BME280;45426;44.726;10.390;2022-08-30T09:36:52;100699.78;;;32.52;100.00
59608;BME280;45426;44.726;10.390;2022-08-30T09:39:29;100708.38;;;31.91;100.00
59608;BME280;45426;44.726;10.390;2022-08-30T09:42:12;100711.16;;;32.82;100.00
59608;BME280;45426;44.726;10.390;2022-08-30T09:44:38;100704.81;;;32.48;100.00
59608;BME280;45426;44.726;10.390;2022-08-30T09:47:03;100701.47;;;32.35;100.00
59608;BME280;45426;44.726;10.390;2022-08-30T09:52:15;100711.31;;;33.02;100.00
59608;BME280;45426;44.726;10.390;2022-08-30T09:54:51;100713.06;;;33.54;100.00
59608;BME280;45426;44.726;10.390;2022-08-30T10:06:06;100699.84;;;33.60;100.00
59608;BME280;45426;44.726;10.390;2022-08-30T10:11:24;100698.97;;;33.24;100.00
59608;BME280;45426;44.726;10.390;2022-08-30T10:16:43;100690.72;;;33.35;100.00
59608;BME280;45426;44.726;10.390;2022-08-30T10:24:48;100685.66;;;33.54;100.00
59608;BME280;45426;44.726;10.390;2022-08-30T10:27:22;100684.56;;;33.81;100.00
59608;BME280;45426;44.726;10.390;2022-08-30T10:30:06;100695.63;;;33.25;100.00
59608;BME280;45426;44.726;10.390;2022-08-30T10:32:38;100679.09;;;32.88;100.00
59608;BME280;45426;44.726;10.390;2022-08-30T10:35:13;100680.41;;;33.32;100.00
59608;BME280;45426;44.726;10.390;2022-08-30T10:37:45;100677.00;;;33.58;100.00
59608;BME280;45426;44.726;10.390;2022-08-30T10:40:18;100682.56;;;33.37;100.00
59608;BME280;45426;44.726;10.390;2022-08-30T10:43:12;100686.13;;;32.84;100.00
59608;BME280;45426;44.726;10.390;2022-08-30T10:45:42;100682.34;;;33.86;100.00
59608;BME280;45426;44.726;10.390;2022-08-30T10:48:18;100692.25;;;33.21;100.00
59608;BME280;45426;44.726;10.390;2022-08-30T10:50:51;100681.06;;;31.82;100.00
59608;BME280;45426;44.726;10.390;2022-08-30T10:53:24;100687.16;;;32.96;100.00
59608;BME280;45426;44.726;10.390;2022-08-30T10:56:07;100678.91;;;33.07;100.00
59608;BME280;45426;44.726;10.390;2022-08-30T10:58:37;100672.88;;;32.36;100.00
59608;BME280;45426;44.726;10.390;2022-08-30T11:14:22;100654.78;;;32.52;100.00
59608;BME280;45426;44.726;10.390;2022-08-30T11:16:55;100667.22;;;32.69;100.00
59608;BME280;45426;44.726;10.390;2022-08-30T11:19:26;100663.31;;;33.21;100.00
59608;BME280;45426;44.726;10.390;2022-08-30T11:22:14;100651.63;;;32.11;100.00
59608;BME280;45426;44.726;10.390;2022-08-30T11:25:00;100646.16;;;32.07;100.00
59608;BME280;45426;44.726;10.390;2022-08-30T11:27:40;100646.84;;;31.60;100.00
59608;BME280;45426;44.726;10.390;2022-08-30T11:35:37;100633.13;;;31.95;100.00
59608;BME280;45426;44.726;10.390;2022-08-30T11:41:09;100623.38;;;32.54;100.00
59608;BME280;45426;44.726;10.390;2022-08-30T11:46:18;100627.84;;;32.21;100.00
59608;BME280;45426;44.726;10.390;2022-08-30T11:57:04;100621.69;;;31.99;100.00
59608;BME280;45426;44.726;10.390;2022-08-30T11:59:33;100614.44;;;32.64;100.00
59608;BME280;45426;44.726;10.390;2022-08-30T12:02:05;100615.09;;;32.59;100.00
59608;BME280;45426;44.726;10.390;2022-08-30T12:04:41;100613.16;;;31.93;100.00
59608;BME280;45426;44.726;10.390;2022-08-30T12:07:07;100613.44;;;31.95;100.00
59608;BME280;45426;44.726;10.390;2022-08-30T12:12:10;100603.31;;;32.46;100.00
59608;BME280;45426;44.726;10.390;2022-08-30T12:14:55;100598.75;;;33.02;100.00
59608;BME280;45426;44.726;10.390;2022-08-30T12:17:50;100589.63;;;32.78;100.00
59608;BME280;45426;44.726;10.390;2022-08-30T12:20:41;100589.75;;;32.20;100.00
59608;BME280;45426;44.726;10.390;2022-08-30T12:23:26;100580.81;;;33.00;100.00
59608;BME280;45426;44.726;10.390;2022-08-30T12:34:17;100587.72;;;31.63;100.00
59608;BME280;45426;44.726;10.390;2022-08-30T12:37:08;100582.94;;;32.12;100.00
59608;BME280;45426;44.726;10.390;2022-08-30T12:39:41;100587.56;;;32.15;100.00
59608;BME280;45426;44.726;10.390;2022-08-30T12:42:20;100579.25;;;31.72;100.00
59608;BME280;45426;44.726;10.390;2022-08-30T12:44:56;100578.94;;;31.95;100.00
59608;BME280;45426;44.726;10.390;2022-08-30T12:47:30;100565.75;;;31.52;100.00
59608;BME280;45426;44.726;10.390;2022-08-30T12:49:57;100560.56;;;31.60;100.00
59608;BME280;45426;44.726;10.390;2022-08-30T12:55:09;100561.41;;;32.48;100.00
59608;BME280;45426;44.726;10.390;2022-08-30T12:57:40;100564.47;;;32.59;100.00
59608;BME280;45426;44.726;10.390;2022-08-30T13:00:08;100578.44;;;32.29;100.00
59608;BME280;45426;44.726;10.390;2022-08-30T13:02:49;100579.31;;;32.36;100.00
59608;BME280;45426;44.726;10.390;2022-08-30T13:15:53;100585.28;;;32.14;100.00
59608;BME280;45426;44.726;10.390;2022-08-30T13:18:25;100565.88;;;31.91;100.00
59608;BME280;45426;44.726;10.390;2022-08-30T13:23:45;100559.69;;;32.11;100.00
59608;BME280;45426;44.726;10.390;2022-08-30T13:26:10;100552.38;;;32.05;100.00
59608;BME280;45426;44.726;10.390;2022-08-30T13:28:57;100554.41;;;32.04;100.00
59608;BME280;45426;44.726;10.390;2022-08-30T13:31:24;100551.81;;;31.91;100.00
59608;BME280;45426;44.726;10.390;2022-08-30T13:33:50;100538.44;;;31.86;100.00
59608;BME280;45426;44.726;10.390;2022-08-30T13:36:31;100530.94;;;31.83;100.00
59608;BME280;45426;44.726;10.390;2022-08-30T13:38:58;100534.94;;;31.67;100.00
59608;BME280;45426;44.726;10.390;2022-08-30T13:41:24;100544.88;;;31.44;100.00
59608;BME280;45426;44.726;10.390;2022-08-30T13:43:50;100562.00;;;31.46;100.00
59608;BME280;45426;44.726;10.390;2022-08-30T13:46:17;100576.25;;;31.33;100.00
59608;BME280;45426;44.726;10.390;2022-08-30T13:48:42;100585.03;;;31.17;100.00
59608;BME280;45426;44.726;10.390;2022-08-30T13:51:08;100588.16;;;31.01;100.00
59608;BME280;45426;44.726;10.390;2022-08-30T13:53:34;100579.16;;;30.78;100.00
59608;BME280;45426;44.726;10.390;2022-08-30T13:56:01;100569.97;;;30.77;100.00
59608;BME280;45426;44.726;10.390;2022-08-30T13:58:27;100575.88;;;30.89;100.00
59608;BME280;45426;44.726;10.390;2022-08-30T14:00:53;100584.63;;;30.91;100.00
59608;BME280;45426;44.726;10.390;2022-08-30T14:03:18;100600.03;;;30.40;100.00
59608;BME280;45426;44.726;10.390;2022-08-30T14:05:45;100606.94;;;29.98;100.00
59608;BME280;45426;44.726;10.390;2022-08-30T14:08:13;100619.97;;;29.30;100.00